Terminal Aerodrome Forecast
Issued by NWS Buffalo, NY

Home | Current Version | Previous Version | Text Only | Print | Product List | Glossary On
Versions: 1 2 3 4 5 6 7 8 9 10 11 12 13 14 15 16 17 18 19 20 21 22 23 24 25 26 27 28
000
FTUS41 KBUF 301740
TAFART
TAF
KART 301740Z 3018/3118 05009KT P6SM SCT140
     FM302300 05007KT P6SM BKN110
     FM310200 00000KT 6SM -RA OVC035
     FM310400 12006KT 2SM -SN OVC015
     FM311100 10010KT 2SM -SN BR OVC007
     FM311300 10011KT 6SM -RA OVC030=

USA.gov is the U.S. government's official web portal to all federal, state and local government web resources and services.